createdAt,value
2019-01-03T00:00:43.265Z,96987.84
2019-01-03T00:02:02.935Z,96992.18
2019-01-03T00:03:08.003Z,96993.89
2019-01-03T00:04:15.687Z,96995.83
2019-01-03T00:05:36.827Z,96994.23
2019-01-03T00:06:57.761Z,96993.67
2019-01-03T00:08:11.489Z,96992.04
2019-01-03T00:09:22.357Z,96994.25
2019-01-03T00:10:45.350Z,96998.33
2019-01-03T00:12:02.266Z,96997.69
2019-01-03T00:13:07.474Z,97005.02
2019-01-03T00:14:28.713Z,97008.81
2019-01-03T00:15:49.529Z,97005.25
2019-01-03T00:16:54.600Z,97018.98
2019-01-03T00:17:59.665Z,97016.72
2019-01-03T00:19:04.725Z,97013.56
2019-01-03T00:20:25.695Z,97017.23
2019-01-03T00:21:33.492Z,97012.59
2019-01-03T00:22:54.735Z,97015.19
2019-01-03T00:24:08.835Z,97021.48
2019-01-03T00:25:22.607Z,97016.48
2019-01-03T00:26:43.573Z,97024.01
2019-01-03T00:27:48.671Z,97021.84
2019-01-03T00:29:05.513Z,97028.19
2019-01-03T00:30:13.784Z,97021.90
2019-01-03T00:31:21.676Z,97024.50
2019-01-03T00:32:38.620Z,97023.17
2019-01-03T00:33:46.103Z,97026.28
2019-01-03T00:35:03.169Z,97035.16
2019-01-03T00:36:24.167Z,97028.91
2019-01-03T00:37:41.064Z,97028.61
2019-01-03T00:38:48.931Z,97032.44
2019-01-03T00:39:53.995Z,97034.48
2019-01-03T00:40:59.069Z,97033.89
2019-01-03T00:42:19.838Z,97028.94
2019-01-03T00:43:27.918Z,97026.60
2019-01-03T00:44:41.725Z,97033.83
2019-01-03T00:46:02.806Z,97038.69
2019-01-03T00:47:25.778Z,97039.70
2019-01-03T00:48:36.872Z,97040.22
2019-01-03T00:49:57.817Z,97046.38
2019-01-03T00:51:17.955Z,97043.63
2019-01-03T00:52:40.653Z,97049.13
2019-01-03T00:53:48.441Z,97054.86
2019-01-03T00:55:11.101Z,97052.53
2019-01-03T00:56:16.181Z,97058.98
2019-01-03T00:57:27.033Z,97058.92
2019-01-03T00:58:37.960Z,97057.72
2019-01-03T00:59:46.011Z,97064.39
2019-01-03T01:00:53.932Z,97059.44
2019-01-03T01:02:05.158Z,97059.70
2019-01-03T01:03:22.326Z,97061.57
2019-01-03T01:04:27.385Z,97059.82
2019-01-03T01:05:41.064Z,97059.94
2019-01-03T01:06:52.081Z,97064.33
2019-01-03T01:08:06.257Z,97062.83
2019-01-03T01:09:17.154Z,97066.82
2019-01-03T01:10:33.748Z,97064.98
2019-01-03T01:11:54.712Z,97069.95
2019-01-03T01:13:15.981Z,97066.28
2019-01-03T01:14:21.127Z,97069.13
2019-01-03T01:15:26.187Z,97074.08
2019-01-03T01:16:34.107Z,97074.42
2019-01-03T01:17:44.913Z,97076.20
2019-01-03T01:18:52.722Z,97080.76
2019-01-03T01:20:13.679Z,97072.64
2019-01-03T01:21:33.612Z,97077.16
2019-01-03T01:22:44.551Z,97081.28
2019-01-03T01:24:01.274Z,97085.66
2019-01-03T01:25:21.252Z,97087.33
2019-01-03T01:26:26.386Z,97089.72
2019-01-03T01:27:37.040Z,97092.11
2019-01-03T01:28:42.140Z,97088.77
2019-01-03T01:29:56.223Z,97095.01
2019-01-03T01:31:03.730Z,97089.56
2019-01-03T01:32:14.477Z,97070.27
2019-01-03T01:33:19.540Z,97102.23
2019-01-03T01:34:33.717Z,97098.79
2019-01-03T01:35:50.656Z,97101.97
2019-01-03T01:37:13.863Z,97096.52
2019-01-03T01:38:21.706Z,97100.84
2019-01-03T01:39:29.740Z,97103.27
2019-01-03T01:40:43.624Z,97101.51
2019-01-03T01:42:04.784Z,97102.06
2019-01-03T01:43:09.921Z,97100.03
2019-01-03T01:44:15.054Z,97103.81
2019-01-03T01:45:25.771Z,97103.53
2019-01-03T01:46:30.907Z,97102.91
2019-01-03T01:47:35.966Z,97108.77
2019-01-03T01:48:58.772Z,97107.28
2019-01-03T01:50:03.916Z,97108.89
2019-01-03T01:51:11.759Z,97113.30
2019-01-03T01:52:32.932Z,97108.04
2019-01-03T01:53:38.009Z,97109.28
2019-01-03T01:54:43.068Z,97108.06
2019-01-03T01:55:50.793Z,97109.83
2019-01-03T01:57:10.885Z,97106.46
2019-01-03T01:58:18.353Z,97107.03
2019-01-03T01:59:39.071Z,97105.59
2019-01-03T02:00:44.229Z,97108.02
2019-01-03T02:01:49.313Z,97110.36
2019-01-03T02:02:54.442Z,97108.45
2019-01-03T02:03:59.503Z,97112.22
2019-01-03T02:05:19.809Z,97106.08
2019-01-03T02:06:24.967Z,97111.20
2019-01-03T02:07:45.948Z,97111.09
2019-01-03T02:09:03.174Z,97111.04
2019-01-03T02:10:10.894Z,97113.02
2019-01-03T02:11:18.706Z,97115.73
2019-01-03T02:12:39.616Z,97121.77
2019-01-03T02:14:00.704Z,97118.95
2019-01-03T02:15:23.773Z,97122.18
2019-01-03T02:16:45.013Z,97116.69
2019-01-03T02:18:05.997Z,97123.33
2019-01-03T02:19:20.061Z,97114.62
2019-01-03T02:20:30.884Z,97122.55
2019-01-03T02:21:41.667Z,97118.88
2019-01-03T02:22:55.293Z,97125.27
2019-01-03T02:24:00.362Z,97119.26
2019-01-03T02:25:17.369Z,97119.08
2019-01-03T02:26:22.438Z,97110.58
2019-01-03T02:27:43.118Z,97112.31
2019-01-03T02:29:04.148Z,97116.44
2019-01-03T02:30:15.095Z,97119.52
2019-01-03T02:31:36.433Z,97117.47
2019-01-03T02:32:47.134Z,97116.36
2019-01-03T02:34:08.604Z,97113.84
2019-01-03T02:35:13.685Z,97113.89
2019-01-03T02:36:34.927Z,97117.47
2019-01-03T02:37:45.962Z,97115.19
2019-01-03T02:38:51.020Z,97118.01
2019-01-03T02:39:56.087Z,97112.87
2019-01-03T02:41:06.606Z,97119.34
2019-01-03T02:42:17.374Z,97112.63
2019-01-03T02:43:22.446Z,97119.23
2019-01-03T02:44:43.345Z,97119.64
2019-01-03T02:45:54.199Z,97113.72
2019-01-03T02:46:59.265Z,97117.96
2019-01-03T02:48:04.343Z,97114.10
2019-01-03T02:49:25.456Z,97121.35
2019-01-03T02:50:30.535Z,97123.06
2019-01-03T02:51:35.592Z,97121.23
2019-01-03T02:52:56.835Z,97123.84
2019-01-03T02:54:13.881Z,97127.39
2019-01-03T02:55:21.513Z,97120.94
2019-01-03T02:56:26.609Z,97125.86
2019-01-03T02:57:47.324Z,97123.45
2019-01-03T02:58:52.410Z,97120.37
2019-01-03T02:59:57.476Z,97124.26
2019-01-03T03:01:05.483Z,97124.75
2019-01-03T03:02:26.332Z,97122.42
2019-01-03T03:03:33.888Z,97122.91
2019-01-03T03:04:38.959Z,97124.73
2019-01-03T03:06:02.027Z,97116.38
2019-01-03T03:07:10.065Z,97123.86
2019-01-03T03:08:17.799Z,97118.50
2019-01-03T03:09:22.888Z,97119.66
2019-01-03T03:10:28.032Z,97117.72
2019-01-03T03:11:41.753Z,97120.33
2019-01-03T03:12:55.624Z,97122.52
2019-01-03T03:14:16.462Z,97124.33
2019-01-03T03:15:30.340Z,97127.61
2019-01-03T03:16:47.287Z,97125.78
2019-01-03T03:17:58.220Z,97125.26
2019-01-03T03:19:11.759Z,97125.75
2019-01-03T03:20:19.692Z,97127.26
2019-01-03T03:21:33.332Z,97126.46
2019-01-03T03:22:38.373Z,97125.14
2019-01-03T03:23:55.109Z,97125.45
2019-01-03T03:25:00.395Z,97123.89
2019-01-03T03:26:11.307Z,97125.19
2019-01-03T03:27:28.011Z,97128.27
2019-01-03T03:28:44.715Z,97127.28
2019-01-03T03:29:52.653Z,97124.46
2019-01-03T03:30:57.729Z,97121.05
2019-01-03T03:32:18.662Z,97123.48
2019-01-03T03:33:38.703Z,97125.80
2019-01-03T03:34:43.769Z,97126.25
2019-01-03T03:35:48.852Z,97121.28
2019-01-03T03:37:09.895Z,97121.63
2019-01-03T03:38:30.763Z,97120.91
2019-01-03T03:39:35.820Z,97123.74
2019-01-03T03:40:49.721Z,97123.74
2019-01-03T03:41:57.442Z,97120.63
2019-01-03T03:43:14.226Z,97124.61
2019-01-03T03:44:19.289Z,97122.77
2019-01-03T03:45:24.345Z,97125.13
2019-01-03T03:46:29.434Z,97120.10
2019-01-03T03:47:40.256Z,97123.09
2019-01-03T03:49:01.317Z,97123.70
2019-01-03T03:50:09.892Z,97123.57
2019-01-03T03:51:17.685Z,97120.42
2019-01-03T03:52:22.753Z,97119.17
2019-01-03T03:53:43.628Z,97122.52
2019-01-03T03:54:48.772Z,97123.74
2019-01-03T03:56:09.950Z,97123.83
2019-01-03T03:57:26.624Z,97132.38
2019-01-03T03:58:34.293Z,97123.40
2019-01-03T03:59:39.364Z,97121.60
2019-01-03T04:01:00.231Z,97128.57
2019-01-03T04:02:08.268Z,97119.19
2019-01-03T04:03:13.335Z,97126.90
2019-01-03T04:04:34.282Z,97128.16
2019-01-03T04:05:57.330Z,97120.83
2019-01-03T04:07:02.418Z,97126.55
2019-01-03T04:08:25.528Z,97125.26
2019-01-03T04:09:30.592Z,97129.14
2019-01-03T04:10:50.618Z,97121.53
2019-01-03T04:12:10.630Z,97121.56
2019-01-03T04:13:18.515Z,97125.61
2019-01-03T04:14:41.633Z,97118.82
2019-01-03T04:15:46.692Z,97113.61
2019-01-03T04:16:51.760Z,97115.93
2019-01-03T04:18:05.774Z,97116.69
2019-01-03T04:19:10.845Z,97105.38
2019-01-03T04:20:21.750Z,97111.32
2019-01-03T04:21:42.780Z,97112.53
2019-01-03T04:22:56.304Z,97109.92
2019-01-03T04:24:01.387Z,97112.20
2019-01-03T04:25:06.589Z,97107.38
2019-01-03T04:26:11.731Z,97108.33
2019-01-03T04:27:25.855Z,97102.86
2019-01-03T04:28:46.618Z,97105.08
2019-01-03T04:29:57.123Z,97104.80
2019-01-03T04:31:11.061Z,97102.13
2019-01-03T04:32:25.027Z,97098.81
2019-01-03T04:33:48.037Z,97095.03
2019-01-03T04:34:55.922Z,97091.63
2019-01-03T04:36:12.893Z,97090.81
2019-01-03T04:37:32.554Z,97088.11
2019-01-03T04:38:49.474Z,97081.17
2019-01-03T04:39:57.651Z,97088.11
2019-01-03T04:41:18.753Z,97084.25
2019-01-03T04:42:32.399Z,97078.06
2019-01-03T04:43:55.287Z,97079.89
2019-01-03T04:45:03.126Z,97079.48
2019-01-03T04:46:26.248Z,97077.61
2019-01-03T04:47:49.295Z,97081.77
2019-01-03T04:49:03.303Z,97075.04
2019-01-03T04:50:14.038Z,97076.74
2019-01-03T04:51:28.085Z,97078.89
2019-01-03T04:52:36.045Z,97078.09
2019-01-03T04:53:44.003Z,97084.55
2019-01-03T04:54:51.920Z,97082.39
2019-01-03T04:56:02.834Z,97086.03
2019-01-03T04:57:13.847Z,97079.50
2019-01-03T04:58:18.907Z,97084.19
2019-01-03T04:59:39.917Z,97087.23
2019-01-03T05:00:45.011Z,97089.71
2019-01-03T05:02:07.062Z,97090.39
2019-01-03T05:03:23.727Z,97093.12
2019-01-03T05:04:28.776Z,97094.89
2019-01-03T05:05:33.869Z,97090.74
2019-01-03T05:06:38.936Z,97100.36
2019-01-03T05:08:00.098Z,97109.25
2019-01-03T05:09:11.194Z,97106.09
2019-01-03T05:10:27.986Z,97105.92
2019-01-03T05:11:33.074Z,97112.65
2019-01-03T05:12:53.781Z,97113.36
2019-01-03T05:14:04.812Z,97109.86
2019-01-03T05:15:09.937Z,97109.37
2019-01-03T05:16:15.017Z,97110.06
2019-01-03T05:17:22.670Z,97116.42
2019-01-03T05:18:43.482Z,97114.52
2019-01-03T05:19:54.411Z,97117.04
2019-01-03T05:21:15.686Z,97120.08
2019-01-03T05:22:29.640Z,97117.25
2019-01-03T05:23:37.392Z,97114.80
2019-01-03T05:24:51.397Z,97115.75
2019-01-03T05:26:14.270Z,97122.50
2019-01-03T05:27:24.819Z,97119.83
2019-01-03T05:28:45.645Z,97127.23
2019-01-03T05:30:03.580Z,97131.62
2019-01-03T05:31:08.611Z,97134.17
2019-01-03T05:32:29.856Z,97126.94
2019-01-03T05:33:40.706Z,97129.37
2019-01-03T05:34:51.584Z,97135.04
2019-01-03T05:36:12.628Z,97132.45
2019-01-03T05:37:17.713Z,97136.80
2019-01-03T05:38:22.778Z,97140.98
2019-01-03T05:39:27.903Z,97138.42
2019-01-03T05:40:38.664Z,97140.81
2019-01-03T05:41:52.562Z,97138.53
2019-01-03T05:43:15.501Z,97143.67
2019-01-03T05:44:26.172Z,97136.03
2019-01-03T05:45:31.300Z,97148.56
2019-01-03T05:46:41.838Z,97151.93
2019-01-03T05:48:04.688Z,97150.63
2019-01-03T05:49:25.744Z,97151.95
2019-01-03T05:50:33.654Z,97148.92
2019-01-03T05:51:41.561Z,97160.37
2019-01-03T05:53:02.677Z,97156.19
2019-01-03T05:54:10.803Z,97153.91
2019-01-03T05:55:15.874Z,97156.27
2019-01-03T05:56:21.002Z,97158.28
2019-01-03T05:57:34.976Z,97160.31
2019-01-03T05:58:40.017Z,97152.20
2019-01-03T05:59:47.678Z,97155.31
2019-01-03T06:01:01.890Z,97151.69
2019-01-03T06:02:21.762Z,97155.67
2019-01-03T06:03:26.826Z,97155.34
2019-01-03T06:04:34.471Z,97156.61
2019-01-03T06:05:55.416Z,97161.20
2019-01-03T06:07:18.367Z,97161.72
2019-01-03T06:08:39.195Z,97163.64
2019-01-03T06:09:59.201Z,97163.66
2019-01-03T06:11:15.763Z,97166.25
2019-01-03T06:12:20.839Z,97173.93
2019-01-03T06:13:25.890Z,97170.55
2019-01-03T06:14:48.990Z,97168.39
2019-01-03T06:16:08.990Z,97165.77
2019-01-03T06:17:30.112Z,97170.66
2019-01-03T06:18:38.076Z,97164.66
2019-01-03T06:19:43.155Z,97162.02
2019-01-03T06:20:56.808Z,97166.52
2019-01-03T06:22:17.793Z,97161.58
2019-01-03T06:23:34.694Z,97163.66
2019-01-03T06:24:55.846Z,97164.72
2019-01-03T06:26:15.623Z,97166.56
2019-01-03T06:27:26.481Z,97169.17
2019-01-03T06:28:49.294Z,97172.75
2019-01-03T06:30:10.450Z,97178.08
2019-01-03T06:31:24.200Z,97183.95
2019-01-03T06:32:29.270Z,97176.46
2019-01-03T06:33:34.346Z,97179.87
2019-01-03T06:34:42.172Z,97181.39
2019-01-03T06:35:49.943Z,97179.80
2019-01-03T06:36:55.016Z,97179.08
2019-01-03T06:38:14.885Z,97180.28
2019-01-03T06:39:23.012Z,97178.23
2019-01-03T06:40:28.088Z,97177.16
2019-01-03T06:41:35.968Z,97176.95
2019-01-03T06:42:55.817Z,97181.28
2019-01-03T06:44:09.640Z,97181.69
2019-01-03T06:45:30.662Z,97174.93
2019-01-03T06:46:38.483Z,97179.08
2019-01-03T06:47:52.165Z,97181.84
2019-01-03T06:48:59.624Z,97180.28
2019-01-03T06:50:19.668Z,97186.80
2019-01-03T06:51:30.431Z,97194.81
2019-01-03T06:52:50.498Z,97186.31
2019-01-03T06:54:11.614Z,97187.84
2019-01-03T06:55:22.405Z,97194.30
2019-01-03T06:56:30.330Z,97200.25
2019-01-03T06:57:47.022Z,97199.67
2019-01-03T06:59:01.100Z,97201.97
2019-01-03T07:00:10.323Z,97201.75
2019-01-03T07:01:21.378Z,97202.25
2019-01-03T07:02:29.055Z,97206.70
2019-01-03T07:03:34.164Z,97206.64
2019-01-03T07:04:39.351Z,97199.69
2019-01-03T07:05:56.270Z,97210.59
2019-01-03T07:07:01.354Z,97211.64
2019-01-03T07:08:22.142Z,97214.42
2019-01-03T07:09:39.059Z,97206.16
2019-01-03T07:10:49.599Z,97215.70
2019-01-03T07:11:54.734Z,97217.25
2019-01-03T07:13:16.292Z,97224.84
2019-01-03T07:14:21.427Z,97220.16
2019-01-03T07:15:26.600Z,97219.56
2019-01-03T07:16:34.520Z,97221.39
2019-01-03T07:17:39.765Z,97215.17
2019-01-03T07:18:47.843Z,97219.48
2019-01-03T07:19:55.538Z,97220.77
2019-01-03T07:21:16.948Z,97218.48
2019-01-03T07:22:25.073Z,97217.66
2019-01-03T07:23:42.121Z,97233.27
2019-01-03T07:25:02.051Z,97224.77
2019-01-03T07:26:09.660Z,97231.31
2019-01-03T07:27:20.536Z,97226.41
2019-01-03T07:28:31.518Z,97232.53
2019-01-03T07:29:39.420Z,97222.98
2019-01-03T07:30:56.232Z,97229.49
2019-01-03T07:32:17.452Z,97230.00
2019-01-03T07:33:38.572Z,97227.66
2019-01-03T07:34:59.512Z,97219.84
2019-01-03T07:36:10.169Z,97223.23
2019-01-03T07:37:31.010Z,97224.50
2019-01-03T07:38:41.907Z,97221.68
2019-01-03T07:39:50.060Z,97215.75
2019-01-03T07:41:11.177Z,97215.52
2019-01-03T07:42:16.331Z,97218.86
2019-01-03T07:43:39.472Z,97223.55
2019-01-03T07:45:00.732Z,97224.08
2019-01-03T07:46:10.992Z,97223.58
2019-01-03T07:47:31.176Z,97219.17
2019-01-03T07:48:45.386Z,97223.77
2019-01-03T07:49:59.433Z,97227.86
2019-01-03T07:51:20.578Z,97225.07
2019-01-03T07:52:41.294Z,97231.01
2019-01-03T07:53:54.800Z,97227.64
2019-01-03T07:55:08.660Z,97227.14
2019-01-03T07:56:19.618Z,97239.50
2019-01-03T07:57:40.799Z,97240.75
2019-01-03T07:59:02.267Z,97238.34
2019-01-03T08:00:12.231Z,97235.78
2019-01-03T08:01:33.607Z,97247.50
2019-01-03T08:02:54.593Z,97247.33
2019-01-03T08:04:02.399Z,97247.79
2019-01-03T08:05:10.203Z,97248.23
2019-01-03T08:06:20.948Z,97250.52
2019-01-03T08:07:26.031Z,97246.73
2019-01-03T08:08:40.173Z,97248.73
2019-01-03T08:09:50.986Z,97252.36
2019-01-03T08:10:56.089Z,97256.75
2019-01-03T08:12:09.913Z,97251.06
2019-01-03T08:13:14.983Z,97249.84
2019-01-03T08:14:25.651Z,97259.20
2019-01-03T08:15:30.716Z,97256.89
2019-01-03T08:16:47.712Z,97260.48
2019-01-03T08:17:55.435Z,97248.31
2019-01-03T08:19:03.136Z,97250.92
2019-01-03T08:20:11.333Z,97251.39
2019-01-03T08:21:25.005Z,97244.91
2019-01-03T08:22:36.014Z,97242.87
2019-01-03T08:23:58.826Z,97243.13
2019-01-03T08:25:03.903Z,97240.74
2019-01-03T08:26:09.025Z,97240.23
2019-01-03T08:27:30.419Z,97239.30
2019-01-03T08:28:51.520Z,97239.86
2019-01-03T08:30:02.394Z,97242.17
2019-01-03T08:31:07.527Z,97244.77
2019-01-03T08:32:12.596Z,97247.36
2019-01-03T08:33:35.679Z,97245.50
2019-01-03T08:34:43.719Z,97250.91
2019-01-03T08:35:51.464Z,97247.73
2019-01-03T08:37:05.304Z,97246.20
2019-01-03T08:38:16.529Z,97251.38
2019-01-03T08:39:27.491Z,97247.50
2019-01-03T08:40:48.751Z,97247.50
2019-01-03T08:42:09.876Z,97246.89
2019-01-03T08:43:30.628Z,97252.27
2019-01-03T08:44:41.494Z,97259.56
2019-01-03T08:45:52.578Z,97251.50
2019-01-03T08:47:13.719Z,97257.44
2019-01-03T08:48:27.935Z,97255.66
2019-01-03T08:49:38.730Z,97251.28
2019-01-03T08:50:55.447Z,97251.95
2019-01-03T08:52:03.351Z,97251.37
2019-01-03T08:53:24.479Z,97248.98
2019-01-03T08:54:47.635Z,97254.84
2019-01-03T08:56:11.008Z,97253.98
2019-01-03T08:57:16.104Z,97259.52
2019-01-03T08:58:23.958Z,97255.41
2019-01-03T08:59:29.109Z,97265.22
2019-01-03T09:00:39.812Z,97255.58
2019-01-03T09:02:00.784Z,97252.77
2019-01-03T09:03:17.588Z,97255.08
2019-01-03T09:04:40.807Z,97250.19
2019-01-03T09:05:48.683Z,97257.48
2019-01-03T09:06:53.740Z,97255.37
2019-01-03T09:08:01.270Z,97250.91
2019-01-03T09:09:20.102Z,97247.87
2019-01-03T09:10:36.985Z,97251.70
2019-01-03T09:11:50.558Z,97245.00
2019-01-03T09:13:11.239Z,97254.10
2019-01-03T09:14:16.311Z,97249.16
2019-01-03T09:15:37.105Z,97258.00
2019-01-03T09:16:45.003Z,97258.83
2019-01-03T09:17:50.070Z,97255.98
2019-01-03T09:18:57.827Z,97271.48
2019-01-03T09:20:11.977Z,97266.02
2019-01-03T09:21:19.948Z,97270.17
2019-01-03T09:22:37.271Z,97265.95
2019-01-03T09:23:54.216Z,97267.70
2019-01-03T09:25:04.807Z,97268.46
2019-01-03T09:26:18.876Z,97274.34
2019-01-03T09:27:23.941Z,97263.98
2019-01-03T09:28:45.025Z,97267.47
2019-01-03T09:30:06.308Z,97265.41
2019-01-03T09:31:23.197Z,97275.27
2019-01-03T09:32:28.286Z,97271.17
2019-01-03T09:33:35.381Z,97274.97
2019-01-03T09:34:45.973Z,97267.20
2019-01-03T09:35:53.690Z,97278.44
2019-01-03T09:37:04.356Z,97270.73
2019-01-03T09:38:12.140Z,97264.77
2019-01-03T09:39:23.187Z,97271.22
2019-01-03T09:40:28.255Z,97272.70
2019-01-03T09:41:35.881Z,97273.70
2019-01-03T09:42:49.688Z,97268.58
2019-01-03T09:43:57.195Z,97263.11
2019-01-03T09:45:00.693Z,97267.21
2019-01-03T09:46:04.189Z,97261.83
2019-01-03T09:47:07.610Z,97264.31
2019-01-03T09:48:11.170Z,97267.61
2019-01-03T09:49:14.603Z,97261.48
2019-01-03T09:50:18.031Z,97262.30
2019-01-03T09:51:21.446Z,97259.95
2019-01-03T09:52:24.888Z,97262.52
2019-01-03T09:53:28.341Z,97258.72
2019-01-03T09:54:31.838Z,97253.81
2019-01-03T09:55:35.337Z,97260.53
2019-01-03T09:56:38.760Z,97252.66
2019-01-03T09:57:42.272Z,97257.55
2019-01-03T09:58:45.817Z,97255.09
2019-01-03T09:59:49.398Z,97245.81
2019-01-03T10:00:52.830Z,97256.98
2019-01-03T10:01:56.338Z,97250.47
2019-01-03T10:02:59.805Z,97253.30
2019-01-03T10:04:03.485Z,97250.22
2019-01-03T10:05:06.987Z,97247.31
2019-01-03T10:06:10.425Z,97247.09
2019-01-03T10:07:13.845Z,97242.16
2019-01-03T10:08:19.725Z,97238.53
2019-01-03T10:09:22.611Z,97237.03
2019-01-03T10:10:26.306Z,97242.20
2019-01-03T10:11:29.793Z,97239.36
2019-01-03T10:12:33.231Z,97241.40
2019-01-03T10:13:36.766Z,97244.42
2019-01-03T10:14:40.358Z,97244.66
2019-01-03T10:15:43.793Z,97242.98
2019-01-03T10:16:47.287Z,97241.21
2019-01-03T10:17:50.779Z,97246.95
2019-01-03T10:18:54.241Z,97238.85
2019-01-03T10:19:57.779Z,97240.96
2019-01-03T10:21:01.280Z,97242.17
2019-01-03T10:22:04.773Z,97230.19
2019-01-03T10:23:08.269Z,97234.77
2019-01-03T10:24:11.750Z,97231.42
2019-01-03T10:25:15.201Z,97231.81
2019-01-03T10:26:18.634Z,97226.91
2019-01-03T10:27:22.134Z,97236.17
2019-01-03T10:28:25.607Z,97228.89
2019-01-03T10:29:29.053Z,97233.14
2019-01-03T10:30:32.654Z,97226.76
2019-01-03T10:31:36.066Z,97227.47
2019-01-03T10:32:39.512Z,97225.17
2019-01-03T10:33:42.968Z,97221.08
2019-01-03T10:34:46.631Z,97223.97
2019-01-03T10:35:50.063Z,97227.79
2019-01-03T10:36:53.496Z,97230.55
2019-01-03T10:37:57.059Z,97232.59
2019-01-03T10:39:00.480Z,97232.45
2019-01-03T10:40:05.366Z,97227.72
2019-01-03T10:41:08.784Z,97225.95
2019-01-03T10:42:12.288Z,97224.94
2019-01-03T10:43:15.915Z,97224.34
2019-01-03T10:44:19.511Z,97225.64
2019-01-03T10:45:23.024Z,97222.67
2019-01-03T10:46:26.447Z,97222.70
2019-01-03T10:47:29.878Z,97217.48
2019-01-03T10:48:33.374Z,97211.08
2019-01-03T10:49:36.901Z,97209.27
2019-01-03T10:50:40.323Z,97206.70
2019-01-03T10:51:43.761Z,97206.63
2019-01-03T10:52:47.417Z,97196.52
2019-01-03T10:53:50.914Z,97207.14
2019-01-03T10:54:54.313Z,97204.19
2019-01-03T10:55:57.829Z,97201.75
2019-01-03T10:57:01.300Z,97198.33
2019-01-03T10:58:04.810Z,97207.14
2019-01-03T10:59:08.283Z,97197.84
2019-01-03T11:00:12.160Z,97201.92
2019-01-03T11:01:15.591Z,97196.34
2019-01-03T11:02:19.048Z,97193.63
2019-01-03T11:03:22.476Z,97194.95
2019-01-03T11:04:26.048Z,97191.76
2019-01-03T11:05:29.506Z,97186.77
2019-01-03T11:06:32.938Z,97188.82
2019-01-03T11:07:36.379Z,97175.77
2019-01-03T11:08:39.808Z,97183.23
2019-01-03T11:09:43.461Z,97177.32
2019-01-03T11:10:46.998Z,97181.26
2019-01-03T11:11:50.502Z,97182.40
2019-01-03T11:12:54.034Z,97178.86
2019-01-03T11:13:57.598Z,97181.72
2019-01-03T11:15:01.228Z,97182.08
2019-01-03T11:16:04.809Z,97171.46
2019-01-03T11:17:08.426Z,97169.48
2019-01-03T11:18:11.847Z,97169.84
2019-01-03T11:19:15.292Z,97171.20
2019-01-03T11:20:18.748Z,97161.60
2019-01-03T11:21:22.204Z,97163.17
2019-01-03T11:22:25.722Z,97157.25
2019-01-03T11:23:29.292Z,97156.13
2019-01-03T11:24:32.790Z,97158.23
2019-01-03T11:25:36.247Z,97160.80
2019-01-03T11:26:39.766Z,97156.16
2019-01-03T11:27:43.290Z,97160.01
2019-01-03T11:28:46.768Z,97155.14
2019-01-03T11:29:50.272Z,97154.30
2019-01-03T11:30:53.910Z,97159.20
2019-01-03T11:31:57.525Z,97147.32
2019-01-03T11:33:00.970Z,97157.05
2019-01-03T11:34:04.455Z,97146.06
2019-01-03T11:35:08.056Z,97140.88
2019-01-03T11:36:11.639Z,97145.74
2019-01-03T11:37:15.112Z,97143.63
2019-01-03T11:38:18.548Z,97147.56
2019-01-03T11:39:22.074Z,97136.37
2019-01-03T11:40:25.511Z,97140.66
2019-01-03T11:41:28.968Z,97138.06
2019-01-03T11:42:32.514Z,97138.84
2019-01-03T11:43:35.956Z,97142.44
2019-01-03T11:44:39.380Z,97136.34
2019-01-03T11:45:42.813Z,97135.52
2019-01-03T11:46:46.403Z,97135.00
2019-01-03T11:47:49.764Z,97132.44
2019-01-03T11:48:53.257Z,97138.39
2019-01-03T11:49:56.686Z,97136.80
2019-01-03T11:51:00.155Z,97124.97
2019-01-03T11:52:03.631Z,97123.03
2019-01-03T11:53:07.127Z,97121.07
2019-01-03T11:54:10.508Z,97120.88
2019-01-03T11:55:13.944Z,97124.73
2019-01-03T11:56:17.367Z,97119.69
2019-01-03T11:57:21.387Z,97118.23
2019-01-03T11:58:24.795Z,97115.61
2019-01-03T11:59:28.231Z,97111.72
2019-01-03T12:00:31.657Z,97112.37
2019-01-03T12:01:35.153Z,97108.97
2019-01-03T12:02:38.771Z,97108.64
2019-01-03T12:03:42.159Z,97099.50
2019-01-03T12:04:45.589Z,97103.66
2019-01-03T12:05:49.084Z,97096.48
2019-01-03T12:06:52.532Z,97097.72
2019-01-03T12:07:55.993Z,97089.77
2019-01-03T12:08:59.424Z,97082.97
2019-01-03T12:10:02.911Z,97086.85
2019-01-03T12:11:06.340Z,97091.14
2019-01-03T12:12:09.787Z,97087.27
2019-01-03T12:13:13.229Z,97075.56
2019-01-03T12:14:16.686Z,97076.56
2019-01-03T12:15:20.119Z,97079.12
2019-01-03T12:16:23.571Z,97078.70
2019-01-03T12:17:27.011Z,97073.89
2019-01-03T12:18:30.459Z,97077.64
2019-01-03T12:19:33.911Z,97081.59
2019-01-03T12:20:37.355Z,97072.63
2019-01-03T12:21:40.774Z,97078.56
2019-01-03T12:22:44.214Z,97079.75
2019-01-03T12:23:47.660Z,97079.69
2019-01-03T12:24:51.109Z,97077.53
2019-01-03T12:25:54.510Z,97079.68
2019-01-03T12:26:58.006Z,97078.42
2019-01-03T12:28:01.501Z,97075.64
2019-01-03T12:29:04.958Z,97081.95
2019-01-03T12:30:10.147Z,97080.16
2019-01-03T12:31:13.628Z,97076.91
2019-01-03T12:32:17.060Z,97079.97
2019-01-03T12:33:20.478Z,97077.59
2019-01-03T12:34:24.069Z,97077.97
2019-01-03T12:35:27.555Z,97077.20
2019-01-03T12:36:30.980Z,97073.53
2019-01-03T12:37:34.423Z,97069.48
2019-01-03T12:38:37.852Z,97080.45
2019-01-03T12:39:41.297Z,97075.74
2019-01-03T12:40:44.717Z,97076.52
2019-01-03T12:41:48.141Z,97067.89
2019-01-03T12:42:51.568Z,97070.75
2019-01-03T12:43:55.092Z,97078.69
2019-01-03T12:44:58.545Z,97061.83
2019-01-03T12:46:01.971Z,97067.35
2019-01-03T12:47:05.392Z,97068.36
2019-01-03T12:48:08.836Z,97071.79
2019-01-03T12:49:12.334Z,97070.84
2019-01-03T12:50:15.789Z,97072.67
2019-01-03T12:51:19.226Z,97073.70
2019-01-03T12:52:22.641Z,97070.62
2019-01-03T12:53:26.066Z,97070.61
2019-01-03T12:54:29.492Z,97064.30
2019-01-03T12:55:32.941Z,97068.95
2019-01-03T12:56:36.370Z,97069.80
2019-01-03T12:57:39.800Z,97066.94
2019-01-03T12:58:43.234Z,97070.06
2019-01-03T12:59:46.678Z,97064.95
2019-01-03T13:00:50.202Z,97073.14
2019-01-03T13:01:53.634Z,97073.00
2019-01-03T13:02:57.138Z,97076.28
2019-01-03T13:04:00.637Z,97081.45
2019-01-03T13:05:04.492Z,97074.72
2019-01-03T13:06:08.009Z,97077.09
2019-01-03T13:07:11.458Z,97081.75
2019-01-03T13:08:14.883Z,97079.20
2019-01-03T13:09:19.001Z,97083.22
2019-01-03T13:10:22.430Z,97087.13
2019-01-03T13:11:25.883Z,97083.25
2019-01-03T13:12:29.322Z,97078.38
2019-01-03T13:13:32.750Z,97081.45
2019-01-03T13:14:36.675Z,97081.08
2019-01-03T13:15:40.111Z,97073.05
2019-01-03T13:16:43.621Z,97081.92
2019-01-03T13:17:47.323Z,97069.02
2019-01-03T13:18:50.746Z,97069.97
2019-01-03T13:19:54.271Z,97078.11
2019-01-03T13:20:57.779Z,97073.66
2019-01-03T13:22:01.227Z,97071.41
2019-01-03T13:23:04.806Z,97074.22
2019-01-03T13:24:08.365Z,97076.47
2019-01-03T13:25:11.849Z,97068.54
2019-01-03T13:26:15.346Z,97069.31
2019-01-03T13:27:18.791Z,97065.89
2019-01-03T13:28:22.215Z,97070.02
2019-01-03T13:29:25.667Z,97063.61
2019-01-03T13:30:29.109Z,97068.67
2019-01-03T13:31:32.560Z,97067.23
2019-01-03T13:32:36.247Z,97070.74
2019-01-03T13:33:39.742Z,97063.99
2019-01-03T13:34:43.173Z,97062.12
2019-01-03T13:35:46.731Z,97063.77
2019-01-03T13:36:50.339Z,97068.02
2019-01-03T13:37:53.790Z,97063.67
2019-01-03T13:38:57.458Z,97064.20
2019-01-03T13:40:00.892Z,97066.94